createdAt,value
2022-10-31T00:00:07.617Z,20.08
2022-10-31T00:01:18.944Z,19.50
2022-10-31T00:02:20.779Z,20.14
2022-10-31T00:03:22.784Z,20.19
2022-10-31T00:04:24.520Z,19.51
2022-10-31T00:05:26.313Z,20.24
2022-10-31T00:06:28.410Z,20.13
2022-10-31T00:07:30.138Z,20.08
2022-10-31T00:08:31.942Z,20.14
2022-10-31T00:09:33.729Z,19.90
2022-10-31T00:10:38.873Z,20.11
2022-10-31T00:11:40.682Z,19.78
2022-10-31T00:12:42.401Z,19.44
2022-10-31T00:13:44.160Z,19.52
2022-10-31T00:14:45.989Z,20.07
2022-10-31T00:15:47.900Z,19.94
2022-10-31T00:16:49.599Z,20.10
2022-10-31T00:17:51.418Z,20.14
2022-10-31T00:18:54.888Z,19.34
2022-10-31T00:19:56.678Z,18.49
2022-10-31T00:21:02.660Z,20.26
2022-10-31T00:22:04.354Z,20.27
2022-10-31T00:23:07.428Z,19.99
2022-10-31T00:24:09.257Z,19.89
2022-10-31T00:25:11.063Z,19.08
2022-10-31T00:26:13.070Z,19.24
2022-10-31T00:27:14.833Z,19.85
2022-10-31T00:28:16.692Z,19.85
2022-10-31T00:29:18.660Z,19.40
2022-10-31T00:30:20.527Z,19.32
2022-10-31T00:31:22.288Z,19.23
2022-10-31T00:32:25.205Z,19.29
2022-10-31T00:33:27.293Z,20.17
2022-10-31T00:34:29.043Z,20.17
2022-10-31T00:35:30.735Z,19.83
2022-10-31T00:36:32.523Z,19.73
2022-10-31T00:37:34.379Z,19.84
2022-10-31T00:38:36.169Z,19.14
2022-10-31T00:39:37.898Z,19.77
2022-10-31T00:40:39.880Z,19.24
2022-10-31T00:41:41.730Z,19.92
2022-10-31T00:42:47.622Z,19.27
2022-10-31T00:43:49.351Z,19.77
2022-10-31T00:44:51.132Z,19.81
2022-10-31T00:45:52.970Z,19.19
2022-10-31T00:46:54.743Z,20.10
2022-10-31T00:47:57.510Z,19.96
2022-10-31T00:48:59.536Z,19.17
2022-10-31T00:50:01.430Z,19.72
2022-10-31T00:51:03.264Z,19.93
2022-10-31T00:52:05.030Z,19.72
2022-10-31T00:53:07.370Z,19.19
2022-10-31T00:54:09.251Z,19.24
2022-10-31T00:55:11.079Z,19.83
2022-10-31T00:56:12.819Z,19.17
2022-10-31T00:57:15.368Z,19.89
2022-10-31T00:58:17.595Z,19.93
2022-10-31T00:59:19.295Z,19.14
2022-10-31T01:00:21.313Z,19.73
2022-10-31T01:01:23.956Z,18.97
2022-10-31T01:02:25.948Z,19.06
2022-10-31T01:03:30.724Z,20.00
2022-10-31T01:04:32.617Z,19.10
2022-10-31T01:05:34.391Z,19.16
2022-10-31T01:06:37.596Z,19.84
2022-10-31T01:07:41.163Z,18.53
2022-10-31T01:08:44.507Z,19.87
2022-10-31T01:09:48.273Z,19.12
2022-10-31T01:11:09.482Z,19.50
2022-10-31T01:12:11.292Z,19.52
2022-10-31T01:13:14.794Z,19.71
2022-10-31T01:14:16.799Z,19.76
2022-10-31T01:15:21.767Z,19.13
2022-10-31T01:16:27.102Z,19.80
2022-10-31T01:17:28.860Z,19.83
2022-10-31T01:18:31.271Z,18.89
2022-10-31T01:19:33.106Z,19.84
2022-10-31T01:20:34.862Z,19.67
2022-10-31T01:21:36.943Z,19.71
2022-10-31T01:22:38.854Z,19.75
2022-10-31T01:23:41.492Z,19.80
2022-10-31T01:24:43.228Z,19.07
2022-10-31T01:25:45.407Z,18.94
2022-10-31T01:26:47.094Z,19.63
2022-10-31T01:27:48.795Z,18.81
2022-10-31T01:28:56.530Z,19.88
2022-10-31T01:29:58.281Z,19.81
2022-10-31T01:31:05.187Z,19.89
2022-10-31T01:32:08.608Z,19.90
2022-10-31T01:33:10.361Z,19.63
2022-10-31T01:34:15.639Z,19.88
2022-10-31T01:35:17.345Z,19.48
2022-10-31T01:36:22.207Z,19.03
2022-10-31T01:37:26.110Z,19.88
2022-10-31T01:38:28.077Z,19.50
2022-10-31T01:39:30.047Z,19.67
2022-10-31T01:40:31.799Z,19.22
2022-10-31T01:41:37.001Z,19.84
2022-10-31T01:42:39.602Z,19.49
2022-10-31T01:43:53.995Z,19.86
2022-10-31T01:44:59.612Z,19.86
2022-10-31T01:46:01.773Z,18.72
2022-10-31T01:47:16.801Z,19.03
2022-10-31T01:48:22.252Z,19.70
2022-10-31T01:49:23.938Z,19.86
2022-10-31T01:50:38.527Z,19.63
2022-10-31T01:51:46.679Z,19.71
2022-10-31T01:52:52.005Z,19.64
2022-10-31T01:53:56.703Z,19.83
2022-10-31T01:55:06.218Z,18.51
2022-10-31T01:56:09.585Z,19.75
2022-10-31T01:57:15.560Z,19.82
2022-10-31T01:58:26.647Z,19.34
2022-10-31T01:59:31.478Z,19.54
2022-10-31T02:00:33.430Z,19.55
2022-10-31T02:01:35.753Z,18.72
2022-10-31T02:02:37.731Z,19.62
2022-10-31T02:03:39.925Z,19.07
2022-10-31T02:04:42.421Z,19.18
2022-10-31T02:05:44.756Z,18.92
2022-10-31T02:06:57.580Z,19.78
2022-10-31T02:08:20.309Z,19.81
2022-10-31T02:09:26.165Z,19.18
2022-10-31T02:10:28.706Z,19.50
2022-10-31T02:11:30.763Z,19.07
2022-10-31T02:12:34.360Z,18.99
2022-10-31T02:13:36.162Z,18.82
2022-10-31T02:14:41.904Z,19.38
2022-10-31T02:15:46.535Z,18.95
2022-10-31T02:16:48.336Z,19.59
2022-10-31T02:17:50.457Z,18.87
2022-10-31T02:18:52.748Z,18.79
2022-10-31T02:20:08.419Z,19.61
2022-10-31T02:21:19.292Z,19.74
2022-10-31T02:22:54.386Z,18.74
2022-10-31T02:24:30.186Z,19.84
2022-10-31T02:26:00.405Z,19.83
2022-10-31T02:27:30.867Z,19.63
2022-10-31T02:28:53.573Z,19.82
2022-10-31T02:30:07.201Z,19.82
2022-10-31T02:31:27.110Z,19.78
2022-10-31T02:32:39.102Z,19.51
2022-10-31T02:33:54.466Z,19.64
2022-10-31T02:35:04.773Z,19.73
2022-10-31T02:36:30.204Z,19.25
2022-10-31T02:38:02.201Z,19.62
2022-10-31T02:39:14.186Z,19.74
2022-10-31T02:40:28.627Z,19.74
2022-10-31T02:42:27.744Z,19.80
2022-10-31T02:43:56.220Z,19.36
2022-10-31T02:45:07.812Z,19.78
2022-10-31T02:46:43.195Z,19.78
2022-10-31T02:47:52.119Z,19.41
2022-10-31T02:49:00.553Z,19.31
2022-10-31T02:50:05.626Z,18.76
2022-10-31T02:51:09.715Z,19.40
2022-10-31T02:52:18.472Z,19.53
2022-10-31T02:53:20.187Z,19.06
2022-10-31T02:54:27.624Z,19.37
2022-10-31T02:55:29.291Z,19.60
2022-10-31T02:56:36.259Z,19.29
2022-10-31T02:57:40.457Z,19.28
2022-10-31T02:58:49.479Z,19.35
2022-10-31T02:59:55.516Z,18.73
2022-10-31T03:01:16.023Z,19.39
2022-10-31T03:02:33.279Z,19.66
2022-10-31T03:04:06.453Z,19.52
2022-10-31T03:05:20.134Z,19.36
2022-10-31T03:06:26.795Z,19.21
2022-10-31T03:07:51.361Z,19.62
2022-10-31T03:09:35.149Z,19.08
2022-10-31T03:10:54.600Z,19.70
2022-10-31T03:12:09.351Z,19.46
2022-10-31T03:13:19.205Z,19.40
2022-10-31T03:14:32.517Z,19.31
2022-10-31T03:15:44.334Z,19.36
2022-10-31T03:16:51.560Z,19.46
2022-10-31T03:18:09.188Z,19.59
2022-10-31T03:19:16.780Z,19.38
2022-10-31T03:20:25.606Z,19.25
2022-10-31T03:21:30.592Z,19.27
2022-10-31T03:22:36.733Z,19.28
2022-10-31T03:23:40.298Z,19.17
2022-10-31T03:24:44.165Z,19.11
2022-10-31T03:25:48.072Z,19.29
2022-10-31T03:26:55.910Z,19.34
2022-10-31T03:27:59.585Z,19.11
2022-10-31T03:29:07.515Z,19.27
2022-10-31T03:30:14.626Z,19.33
2022-10-31T03:31:34.158Z,19.22
2022-10-31T03:32:41.719Z,19.56
2022-10-31T03:33:45.731Z,19.38
2022-10-31T03:34:49.490Z,19.18
2022-10-31T03:35:56.786Z,18.83
2022-10-31T03:37:02.998Z,19.28
2022-10-31T03:38:07.824Z,19.31
2022-10-31T03:39:14.203Z,18.79
2022-10-31T03:40:19.731Z,19.51
2022-10-31T03:41:27.282Z,19.25
2022-10-31T03:42:32.714Z,19.36
2022-10-31T03:43:42.282Z,19.43
2022-10-31T03:44:49.942Z,18.73
2022-10-31T03:45:53.762Z,18.91
2022-10-31T03:46:55.673Z,19.52
2022-10-31T03:48:00.403Z,18.91
2022-10-31T03:49:03.543Z,19.50
2022-10-31T03:50:07.691Z,18.97
2022-10-31T03:51:21.811Z,19.40
2022-10-31T03:52:43.673Z,19.53
2022-10-31T03:54:11.678Z,19.36
2022-10-31T03:55:31.137Z,19.43
2022-10-31T03:56:47.898Z,19.45
2022-10-31T03:57:58.656Z,19.20
2022-10-31T03:59:10.643Z,19.33
2022-10-31T04:00:14.939Z,19.19
2022-10-31T04:01:24.636Z,19.11
2022-10-31T04:02:31.604Z,19.32
2022-10-31T04:03:37.518Z,19.38
2022-10-31T04:04:42.683Z,19.34
2022-10-31T04:05:48.055Z,18.55
2022-10-31T04:06:51.974Z,19.01
2022-10-31T04:07:58.377Z,19.46
2022-10-31T04:09:03.564Z,19.46
2022-10-31T04:10:09.013Z,18.73
2022-10-31T04:11:14.607Z,18.76
2022-10-31T04:12:18.091Z,18.65
2022-10-31T04:14:00.913Z,19.38
2022-10-31T04:15:05.167Z,19.12
2022-10-31T04:16:14.198Z,18.69
2022-10-31T04:17:22.826Z,19.32
2022-10-31T04:18:26.757Z,19.47
2022-10-31T04:19:30.323Z,19.31
2022-10-31T04:20:37.878Z,19.16
2022-10-31T04:21:40.645Z,18.97
2022-10-31T04:22:42.824Z,19.23
2022-10-31T04:23:44.647Z,19.29
2022-10-31T04:24:53.906Z,19.45
2022-10-31T04:25:55.899Z,19.43
2022-10-31T04:26:57.698Z,19.08
2022-10-31T04:27:59.825Z,19.02
2022-10-31T04:29:02.275Z,19.08
2022-10-31T04:30:04.907Z,19.15
2022-10-31T04:31:11.769Z,19.25
2022-10-31T04:32:14.166Z,19.15
2022-10-31T04:33:16.494Z,19.30
2022-10-31T04:34:20.670Z,19.15
2022-10-31T04:35:22.433Z,18.65
2022-10-31T04:36:24.551Z,18.34
2022-10-31T04:37:33.591Z,19.16
2022-10-31T04:38:37.966Z,18.52
2022-10-31T04:39:48.160Z,19.05
2022-10-31T04:41:10.351Z,19.21
2022-10-31T04:42:31.094Z,19.38
2022-10-31T04:43:35.119Z,18.98
2022-10-31T04:44:36.862Z,19.12
2022-10-31T04:45:38.900Z,19.40
2022-10-31T04:46:40.719Z,18.79
2022-10-31T04:47:43.790Z,19.08
2022-10-31T04:48:45.538Z,19.04
2022-10-31T04:49:47.371Z,19.13
2022-10-31T04:50:49.107Z,19.18
2022-10-31T04:51:50.942Z,18.35
2022-10-31T04:52:53.828Z,19.11
2022-10-31T04:54:00.388Z,18.37
2022-10-31T04:55:20.669Z,19.29
2022-10-31T04:56:40.738Z,19.18
2022-10-31T04:57:51.516Z,19.20
2022-10-31T04:58:54.637Z,18.59
2022-10-31T04:59:57.817Z,18.58
2022-10-31T05:00:59.997Z,19.21
2022-10-31T05:02:01.998Z,18.70
2022-10-31T05:03:17.477Z,19.30
2022-10-31T05:04:19.282Z,18.48
2022-10-31T05:05:25.554Z,19.00
2022-10-31T05:06:27.384Z,18.73
2022-10-31T05:07:29.624Z,18.45
2022-10-31T05:08:31.403Z,18.38
2022-10-31T05:09:33.719Z,19.35
2022-10-31T05:10:35.471Z,19.15
2022-10-31T05:11:38.400Z,19.36
2022-10-31T05:13:05.866Z,19.41
2022-10-31T05:14:26.357Z,19.33
2022-10-31T05:15:54.140Z,19.14
2022-10-31T05:17:14.389Z,19.24
2022-10-31T05:18:38.883Z,19.19
2022-10-31T05:19:59.142Z,19.25
2022-10-31T05:21:33.449Z,19.31
2022-10-31T05:22:37.760Z,19.30
2022-10-31T05:23:44.293Z,19.13
2022-10-31T05:24:49.819Z,18.76
2022-10-31T05:25:51.714Z,18.31
2022-10-31T05:26:53.645Z,19.19
2022-10-31T05:27:56.841Z,19.16
2022-10-31T05:28:58.774Z,19.24
2022-10-31T05:31:07.332Z,19.18
2022-10-31T05:32:09.215Z,19.10
2022-10-31T05:33:30.930Z,19.15
2022-10-31T05:34:44.476Z,19.16
2022-10-31T05:36:04.724Z,19.18
2022-10-31T05:37:10.053Z,19.10
2022-10-31T05:38:12.927Z,18.87
2022-10-31T05:39:14.899Z,18.94
2022-10-31T05:40:20.722Z,19.22
2022-10-31T05:41:23.285Z,18.40
2022-10-31T05:42:25.222Z,18.97
2022-10-31T05:43:28.215Z,18.48
2022-10-31T05:44:30.132Z,18.93
2022-10-31T05:45:47.472Z,18.50
2022-10-31T05:47:09.314Z,18.47
2022-10-31T05:48:29.590Z,19.23
2022-10-31T05:49:57.236Z,18.94
2022-10-31T05:51:17.583Z,19.19
2022-10-31T05:52:20.422Z,19.37
2022-10-31T05:53:29.757Z,18.97
2022-10-31T05:54:31.709Z,18.42
2022-10-31T05:55:34.150Z,19.08
2022-10-31T05:56:50.166Z,18.23
2022-10-31T05:57:55.120Z,19.01
2022-10-31T05:58:57.745Z,19.14
2022-10-31T06:00:01.385Z,19.27
2022-10-31T06:01:03.763Z,18.40
2022-10-31T06:02:06.334Z,18.89
2022-10-31T06:03:26.174Z,19.14
2022-10-31T06:04:30.986Z,19.16
2022-10-31T06:05:34.607Z,19.28
2022-10-31T06:06:36.376Z,18.49
2022-10-31T06:07:38.186Z,18.34
2022-10-31T06:08:41.141Z,18.92
2022-10-31T06:09:48.868Z,18.48
2022-10-31T06:10:51.455Z,18.39
2022-10-31T06:11:59.361Z,19.05
2022-10-31T06:13:01.154Z,18.32
2022-10-31T06:14:16.764Z,19.00
2022-10-31T06:15:38.833Z,19.06
2022-10-31T06:16:42.765Z,19.17
2022-10-31T06:18:07.682Z,19.34
2022-10-31T06:19:14.544Z,19.43
2022-10-31T06:20:16.403Z,19.37
2022-10-31T06:21:28.754Z,19.31
2022-10-31T06:22:30.679Z,18.50
2022-10-31T06:23:32.427Z,19.56
2022-10-31T06:25:00.185Z,19.55
2022-10-31T06:26:09.198Z,19.49
2022-10-31T06:27:11.127Z,19.43
2022-10-31T06:28:12.914Z,19.54
2022-10-31T06:29:25.610Z,19.50
2022-10-31T06:30:39.961Z,19.62
2022-10-31T06:31:41.748Z,19.82
2022-10-31T06:32:43.645Z,19.50
2022-10-31T06:33:45.543Z,19.42
2022-10-31T06:34:50.405Z,19.55
2022-10-31T06:35:52.193Z,19.77
2022-10-31T06:36:53.963Z,18.99
2022-10-31T06:37:59.672Z,19.73
2022-10-31T06:39:11.779Z,19.64
2022-10-31T06:40:13.695Z,19.75
2022-10-31T06:41:37.610Z,19.87
2022-10-31T06:42:39.396Z,19.67
2022-10-31T06:43:41.606Z,19.85
2022-10-31T06:45:06.972Z,20.16
2022-10-31T06:46:37.699Z,19.97
2022-10-31T06:49:43.517Z,20.07
2022-10-31T06:50:49.454Z,19.93
2022-10-31T06:51:51.596Z,20.01
2022-10-31T06:52:54.613Z,20.05
2022-10-31T06:53:56.538Z,20.11
2022-10-31T06:55:01.411Z,19.86
2022-10-31T06:56:03.834Z,20.01
2022-10-31T06:57:10.625Z,19.79
2022-10-31T06:58:14.032Z,19.62
2022-10-31T06:59:18.839Z,19.52
2022-10-31T07:00:35.451Z,20.25
2022-10-31T07:01:41.270Z,19.84
2022-10-31T07:02:43.192Z,20.15
2022-10-31T07:03:44.972Z,19.58
2022-10-31T07:04:46.820Z,19.96
2022-10-31T07:05:50.237Z,19.63
2022-10-31T07:06:53.737Z,20.43
2022-10-31T07:08:01.300Z,20.45
2022-10-31T07:09:04.216Z,20.37
2022-10-31T07:10:06.491Z,19.62
2022-10-31T07:11:27.805Z,20.37
2022-10-31T07:12:31.415Z,20.27
2022-10-31T07:13:34.429Z,20.31
2022-10-31T07:14:40.353Z,20.31
2022-10-31T07:15:43.873Z,20.30
2022-10-31T07:16:52.532Z,20.52
2022-10-31T07:18:08.249Z,20.42
2022-10-31T07:19:10.314Z,20.41
2022-10-31T07:20:12.563Z,19.65
2022-10-31T07:21:14.356Z,19.23
2022-10-31T07:22:16.108Z,20.10
2022-10-31T07:23:19.966Z,20.34
2022-10-31T07:24:30.328Z,19.73
2022-10-31T07:25:56.868Z,20.25
2022-10-31T07:27:01.325Z,20.64
2022-10-31T07:28:03.332Z,20.35
2022-10-31T07:29:05.524Z,20.40
2022-10-31T07:30:09.158Z,20.46
2022-10-31T07:31:10.884Z,19.83
2022-10-31T07:32:13.823Z,20.20
2022-10-31T07:33:22.448Z,20.65
2022-10-31T07:34:47.603Z,20.53
2022-10-31T07:36:13.093Z,20.62
2022-10-31T07:37:18.612Z,20.45
2022-10-31T07:38:20.430Z,20.22
2022-10-31T07:39:22.223Z,20.23
2022-10-31T07:40:25.132Z,20.43
2022-10-31T07:41:27.772Z,20.23
2022-10-31T07:42:30.414Z,20.66
2022-10-31T07:43:32.331Z,20.18
2022-10-31T07:44:56.817Z,20.50
2022-10-31T07:45:59.661Z,19.94
2022-10-31T07:47:19.226Z,20.52
2022-10-31T07:48:39.308Z,20.34
2022-10-31T07:50:30.511Z,20.81
2022-10-31T07:52:10.406Z,20.56
2022-10-31T07:53:30.433Z,20.55
2022-10-31T07:54:45.474Z,20.49
2022-10-31T07:55:47.416Z,20.35
2022-10-31T07:56:49.523Z,19.89
2022-10-31T07:58:04.075Z,20.73
2022-10-31T07:59:06.071Z,20.20
2022-10-31T08:00:10.882Z,20.51
2022-10-31T08:01:18.594Z,20.29
2022-10-31T08:02:33.352Z,20.55
2022-10-31T08:04:13.425Z,20.54
2022-10-31T08:05:33.968Z,20.82
2022-10-31T08:07:04.739Z,20.18
2022-10-31T08:08:10.732Z,20.50
2022-10-31T08:09:13.323Z,20.43
2022-10-31T08:10:16.729Z,20.54
2022-10-31T08:11:18.473Z,20.52
2022-10-31T08:12:20.495Z,20.53
2022-10-31T08:13:23.115Z,20.39
2022-10-31T08:14:26.404Z,20.48
2022-10-31T08:15:28.957Z,20.74
2022-10-31T08:16:34.226Z,19.64
2022-10-31T08:17:39.494Z,20.76
2022-10-31T08:18:42.597Z,20.50
2022-10-31T08:19:48.202Z,20.52
2022-10-31T08:20:51.711Z,19.89
2022-10-31T08:21:56.192Z,20.45
2022-10-31T08:23:00.133Z,19.97
2022-10-31T08:24:02.306Z,20.41
2022-10-31T08:25:05.332Z,20.58
2022-10-31T08:26:07.268Z,20.63
2022-10-31T08:27:09.478Z,20.53
2022-10-31T08:28:13.013Z,20.64
2022-10-31T08:29:17.371Z,20.50
2022-10-31T08:30:22.148Z,20.63
2022-10-31T08:31:44.206Z,20.83
2022-10-31T08:33:14.483Z,20.83
2022-10-31T08:34:34.700Z,20.74
2022-10-31T08:36:09.265Z,20.48
2022-10-31T08:37:42.906Z,20.69
2022-10-31T08:38:45.130Z,20.55
2022-10-31T08:39:48.693Z,20.35
2022-10-31T08:40:50.797Z,20.53
2022-10-31T08:41:52.637Z,20.51
2022-10-31T08:43:05.765Z,20.56
2022-10-31T08:44:07.787Z,20.55
2022-10-31T08:45:10.104Z,20.47
2022-10-31T08:46:12.046Z,20.57
2022-10-31T08:47:16.231Z,20.46
2022-10-31T08:48:18.939Z,20.59
2022-10-31T08:49:20.752Z,20.51
2022-10-31T08:50:22.565Z,20.43
2022-10-31T08:51:24.541Z,20.45
2022-10-31T08:52:58.905Z,20.63
2022-10-31T08:53:51.550Z,20.37
2022-10-31T08:55:13.765Z,20.52
2022-10-31T08:56:37.121Z,20.31
2022-10-31T08:57:46.891Z,20.72
2022-10-31T08:58:49.038Z,20.62
2022-10-31T08:59:52.094Z,20.47
2022-10-31T09:01:32.448Z,20.39
2022-10-31T09:02:34.515Z,20.56
2022-10-31T09:03:37.602Z,19.96
2022-10-31T09:04:40.237Z,20.69
2022-10-31T09:05:42.928Z,20.76
2022-10-31T09:07:15.200Z,20.62
2022-10-31T09:08:15.726Z,20.57
2022-10-31T09:09:19.163Z,20.56
2022-10-31T09:10:22.115Z,20.51
2022-10-31T09:11:24.239Z,20.69
2022-10-31T09:12:59.277Z,20.58
2022-10-31T09:14:12.856Z,20.38
2022-10-31T09:15:14.667Z,20.77
2022-10-31T09:16:21.845Z,20.55
2022-10-31T09:17:23.799Z,20.06
2022-10-31T09:18:46.232Z,20.82
2022-10-31T09:19:51.792Z,20.41
2022-10-31T09:20:53.778Z,20.49
2022-10-31T09:21:56.949Z,20.62
2022-10-31T09:23:13.264Z,20.36
2022-10-31T09:24:15.078Z,20.40
2022-10-31T09:25:17.975Z,20.81
2022-10-31T09:26:26.336Z,20.67
2022-10-31T09:27:33.174Z,20.45
2022-10-31T09:28:35.323Z,20.04
2022-10-31T09:29:48.482Z,20.70
2022-10-31T09:30:54.343Z,19.99
2022-10-31T09:32:19.214Z,20.39
2022-10-31T09:33:22.355Z,20.38
2022-10-31T09:34:38.468Z,20.62
2022-10-31T09:35:48.630Z,20.42
2022-10-31T09:36:50.539Z,20.72
2022-10-31T09:38:20.323Z,20.82
2022-10-31T09:39:22.325Z,20.41
2022-10-31T09:40:36.294Z,20.13
2022-10-31T09:41:41.334Z,20.84
2022-10-31T09:43:01.576Z,20.84
2022-10-31T09:44:22.427Z,20.46
2022-10-31T09:45:48.456Z,20.67
2022-10-31T09:47:20.742Z,20.96
2022-10-31T09:48:42.764Z,20.93
2022-10-31T09:50:15.530Z,20.95
2022-10-31T09:51:32.107Z,20.80
2022-10-31T09:53:06.329Z,20.70
2022-10-31T09:54:21.996Z,20.78
2022-10-31T09:55:35.915Z,20.57
2022-10-31T09:56:38.957Z,20.71
2022-10-31T09:57:42.631Z,20.63
2022-10-31T09:58:50.915Z,20.59
2022-10-31T09:59:52.939Z,20.58
2022-10-31T10:01:01.916Z,20.80
2022-10-31T10:02:28.169Z,20.69
2022-10-31T10:03:39.618Z,20.64
2022-10-31T10:05:02.505Z,20.89
2022-10-31T10:06:10.950Z,20.63
2022-10-31T10:07:46.160Z,20.88
2022-10-31T10:09:00.561Z,20.58
2022-10-31T10:10:55.724Z,20.92
2022-10-31T10:12:37.805Z,20.86
2022-10-31T10:13:54.434Z,20.92
2022-10-31T10:15:26.706Z,20.69
2022-10-31T10:16:58.153Z,20.94
2022-10-31T10:18:06.724Z,20.93
2022-10-31T10:19:36.074Z,20.93
2022-10-31T10:21:09.246Z,20.79
2022-10-31T10:22:10.936Z,20.94
2022-10-31T10:23:27.443Z,20.70
2022-10-31T10:24:39.935Z,20.90
2022-10-31T10:25:42.260Z,20.49
2022-10-31T10:27:11.787Z,20.42
2022-10-31T10:28:27.516Z,20.70
2022-10-31T10:29:35.346Z,20.90
2022-10-31T10:30:45.423Z,20.89
2022-10-31T10:31:50.109Z,20.44
2022-10-31T10:33:01.190Z,20.08
2022-10-31T10:34:11.486Z,20.89
2022-10-31T10:35:41.982Z,20.09
2022-10-31T10:36:53.406Z,20.77
2022-10-31T10:38:33.893Z,20.96
2022-10-31T10:39:44.307Z,20.61
2022-10-31T10:40:47.421Z,20.21
2022-10-31T10:42:08.834Z,20.66
2022-10-31T10:43:23.251Z,20.92
2022-10-31T10:44:43.819Z,20.50
2022-10-31T10:46:11.861Z,20.82
2022-10-31T10:47:32.420Z,20.88
2022-10-31T10:48:56.937Z,20.94
2022-10-31T10:50:00.315Z,20.84
2022-10-31T10:51:04.850Z,20.73
2022-10-31T10:52:43.141Z,20.74
2022-10-31T10:54:26.014Z,21.03
2022-10-31T10:55:39.789Z,20.83
2022-10-31T10:57:06.123Z,20.95
2022-10-31T10:58:09.585Z,20.96
2022-10-31T10:59:15.048Z,20.20
2022-10-31T11:00:39.317Z,20.73
2022-10-31T11:01:42.732Z,20.71
2022-10-31T11:02:46.546Z,20.89
2022-10-31T11:03:51.000Z,20.73
2022-10-31T11:04:59.528Z,20.48
2022-10-31T11:06:02.704Z,20.57
2022-10-31T11:07:10.930Z,20.59
2022-10-31T11:08:27.614Z,20.62
2022-10-31T11:09:30.041Z,20.85
2022-10-31T11:10:32.162Z,20.72
2022-10-31T11:11:34.082Z,20.08
2022-10-31T11:12:35.890Z,20.12
2022-10-31T11:13:38.600Z,20.69
2022-10-31T11:14:49.487Z,20.87
2022-10-31T11:16:08.596Z,20.70
2022-10-31T11:17:27.990Z,20.76
2022-10-31T11:18:39.355Z,20.60
2022-10-31T11:19:41.155Z,20.66
2022-10-31T11:20:54.550Z,20.27
2022-10-31T11:22:08.057Z,20.92
2022-10-31T11:23:21.042Z,20.52
2022-10-31T11:24:28.711Z,19.59
2022-10-31T11:25:30.530Z,20.58
2022-10-31T11:26:32.376Z,20.90
2022-10-31T11:27:34.094Z,20.60
2022-10-31T11:28:38.414Z,20.74
2022-10-31T11:29:40.185Z,20.73
2022-10-31T11:30:52.340Z,20.51
2022-10-31T11:31:56.295Z,20.91
2022-10-31T11:32:59.456Z,20.76
2022-10-31T11:34:13.183Z,20.64
2022-10-31T11:35:19.626Z,20.79
2022-10-31T11:36:26.905Z,20.70
2022-10-31T11:37:32.968Z,20.94
2022-10-31T11:38:42.660Z,20.71
2022-10-31T11:39:55.016Z,20.79
2022-10-31T11:41:25.007Z,20.64
2022-10-31T11:42:38.281Z,20.65
2022-10-31T11:43:49.028Z,21.01
2022-10-31T11:44:52.350Z,20.08
2022-10-31T11:45:54.335Z,20.08
2022-10-31T11:47:00.307Z,20.74
2022-10-31T11:48:04.511Z,20.95
2022-10-31T11:49:14.287Z,20.83
2022-10-31T11:50:37.684Z,20.72
2022-10-31T11:51:40.829Z,20.94
2022-10-31T11:52:42.766Z,20.74
2022-10-31T11:53:56.799Z,20.56
2022-10-31T11:55:16.784Z,20.99
2022-10-31T11:56:18.563Z,20.81
2022-10-31T11:57:28.739Z,20.99
2022-10-31T11:58:30.542Z,20.73
2022-10-31T11:59:33.487Z,20.56
2022-10-31T12:00:39.721Z,20.86
2022-10-31T12:01:48.513Z,20.98
2022-10-31T12:02:51.152Z,20.23
2022-10-31T12:04:07.303Z,20.19
2022-10-31T12:05:21.176Z,20.64
2022-10-31T12:06:26.983Z,20.83
2022-10-31T12:07:28.966Z,19.98
2022-10-31T12:08:36.616Z,20.18
2022-10-31T12:09:39.442Z,21.01
2022-10-31T12:11:12.923Z,20.75
2022-10-31T12:12:37.149Z,21.09
2022-10-31T12:13:52.719Z,20.78
2022-10-31T12:15:16.323Z,20.33
2022-10-31T12:16:34.301Z,21.10
2022-10-31T12:18:01.661Z,21.10
2022-10-31T12:19:30.766Z,21.10
2022-10-31T12:21:05.800Z,21.18
2022-10-31T12:22:36.005Z,21.60
2022-10-31T12:23:40.237Z,21.72
2022-10-31T12:25:06.850Z,21.76
2022-10-31T12:26:41.221Z,21.91
2022-10-31T12:28:07.778Z,22.02
2022-10-31T12:29:24.405Z,22.04
2022-10-31T12:31:00.624Z,21.82
2022-10-31T12:32:16.657Z,21.86
2022-10-31T12:33:27.478Z,22.12
2022-10-31T12:34:48.829Z,22.13
2022-10-31T12:36:15.741Z,22.14
2022-10-31T12:37:23.655Z,22.16
2022-10-31T12:38:47.844Z,22.15
2022-10-31T12:40:21.742Z,21.91
2022-10-31T12:41:53.879Z,22.21
2022-10-31T12:43:15.376Z,21.97
2022-10-31T12:44:45.392Z,22.24
2022-10-31T12:45:58.149Z,22.26
2022-10-31T12:47:25.293Z,22.26
2022-10-31T12:48:51.639Z,21.79
2022-10-31T12:50:16.628Z,22.27
2022-10-31T12:51:21.036Z,22.38
2022-10-31T12:52:50.097Z,22.40
2022-10-31T12:53:57.785Z,22.41
2022-10-31T12:55:08.205Z,22.18
2022-10-31T12:56:34.001Z,22.41
2022-10-31T12:57:46.685Z,22.42
2022-10-31T12:58:56.304Z,22.30
2022-10-31T13:00:06.356Z,22.05
2022-10-31T13:01:14.025Z,22.37
2022-10-31T13:02:30.879Z,21.87
2022-10-31T13:03:39.858Z,21.88
2022-10-31T13:05:03.489Z,22.37
2022-10-31T13:06:13.528Z,22.06
2022-10-31T13:07:39.773Z,21.89
2022-10-31T13:08:54.737Z,22.24
2022-10-31T13:10:12.017Z,22.20
2022-10-31T13:11:19.463Z,22.07
2022-10-31T13:12:23.814Z,21.95
2022-10-31T13:13:33.280Z,21.84
2022-10-31T13:14:40.804Z,22.24
2022-10-31T13:15:51.752Z,22.01
2022-10-31T13:16:56.303Z,22.23
2022-10-31T13:18:02.329Z,22.20
2022-10-31T13:19:18.980Z,22.20
2022-10-31T13:20:28.437Z,22.05
2022-10-31T13:21:50.398Z,22.23
2022-10-31T13:23:17.837Z,22.19
2022-10-31T13:25:12.107Z,22.27
2022-10-31T13:26:37.062Z,22.08
2022-10-31T13:27:54.248Z,22.04
2022-10-31T13:29:05.486Z,22.18
2022-10-31T13:30:22.051Z,22.00
2022-10-31T13:31:24.139Z,21.82
2022-10-31T13:32:29.661Z,21.99
2022-10-31T13:33:39.787Z,21.86
2022-10-31T13:34:46.555Z,22.05
2022-10-31T13:36:07.775Z,21.49
2022-10-31T13:37:25.229Z,21.88
2022-10-31T13:39:00.644Z,22.10
2022-10-31T13:40:17.068Z,22.11
2022-10-31T13:41:38.633Z,21.76
2022-10-31T13:43:09.745Z,21.89
2022-10-31T13:44:24.983Z,21.81
2022-10-31T13:45:27.737Z,22.04
2022-10-31T13:46:40.064Z,21.99
2022-10-31T13:47:44.073Z,21.14
2022-10-31T13:48:45.822Z,21.21
2022-10-31T13:49:47.538Z,21.53
2022-10-31T13:51:11.239Z,21.96
2022-10-31T13:52:13.313Z,21.96
2022-10-31T13:53:22.156Z,21.70
2022-10-31T13:54:35.281Z,21.76
2022-10-31T13:55:43.578Z,21.91
2022-10-31T13:56:50.619Z,21.90
2022-10-31T13:57:53.098Z,21.68
2022-10-31T13:59:07.052Z,21.88
2022-10-31T14:00:20.621Z,21.91
2022-10-31T14:01:23.458Z,21.90
2022-10-31T14:02:37.191Z,21.66
2022-10-31T14:05:19.660Z,21.77
2022-10-31T14:06:24.228Z,21.78
2022-10-31T14:07:27.561Z,21.23
2022-10-31T14:08:33.029Z,21.06
2022-10-31T14:09:38.829Z,21.62
2022-10-31T14:10:49.213Z,21.63
2022-10-31T14:11:52.144Z,21.79
2022-10-31T14:13:09.617Z,21.80
2022-10-31T14:14:13.312Z,21.52
2022-10-31T14:15:17.498Z,21.62
2022-10-31T14:16:24.354Z,21.83
2022-10-31T14:17:33.473Z,21.84
2022-10-31T14:18:38.644Z,21.00
2022-10-31T14:19:40.699Z,21.83
2022-10-31T14:20:44.150Z,21.47
2022-10-31T14:21:50.232Z,21.15
2022-10-31T14:22:52.351Z,21.69
2022-10-31T14:23:55.274Z,21.52
2022-10-31T14:24:57.156Z,21.45
2022-10-31T14:26:22.912Z,21.79
2022-10-31T14:27:27.395Z,21.83
2022-10-31T14:28:36.954Z,21.83
2022-10-31T14:29:38.723Z,21.60
2022-10-31T14:30:40.473Z,21.49
2022-10-31T14:32:01.762Z,21.38
2022-10-31T14:33:20.882Z,21.86
2022-10-31T14:34:34.662Z,21.61
2022-10-31T14:36:08.016Z,21.86
2022-10-31T14:37:09.728Z,21.88
2022-10-31T14:38:35.192Z,21.86
2022-10-31T14:39:42.666Z,20.94
2022-10-31T14:41:05.384Z,21.87
2022-10-31T14:42:37.728Z,21.86
2022-10-31T14:43:46.658Z,21.59
2022-10-31T14:44:56.630Z,21.63
2022-10-31T14:46:07.216Z,21.81
2022-10-31T14:47:25.911Z,21.74
2022-10-31T14:48:33.410Z,21.82
2022-10-31T14:50:08.701Z,21.57
2022-10-31T14:51:21.671Z,21.85
2022-10-31T14:52:23.641Z,21.69
2022-10-31T14:53:33.062Z,21.79
2022-10-31T14:54:42.387Z,21.63
2022-10-31T14:55:49.134Z,21.56
2022-10-31T14:56:55.722Z,21.53
2022-10-31T14:58:05.788Z,20.91
2022-10-31T14:59:16.838Z,21.33
2022-10-31T15:00:22.612Z,20.92
2022-10-31T15:01:34.476Z,21.52
2022-10-31T15:02:54.704Z,21.78
2022-10-31T15:05:28.689Z,21.15
2022-10-31T15:06:39.126Z,21.80